KAIK/AIK METAR and TAF weather

Enter ICAO airport designator
Station Type Date Time Source
KAIK METAR 2020/10/20 17:35 UTC NOAA

KAIK 201735Z AUTO 05008KT 010V070 10SM CLR 25/16 A3023 RMK AO2 T02480157


Station Type Date Time Source
KAIK Decoded METAR 2020/10/20 17:35 UTC NOAA

Station name not available
Oct 20, 2020 - 01:35 PM EDT / 2020.10.20 1735 UTC
Wind: from the NE (050 degrees) at 9 MPH (8 KT) (direction variable):0
Visibility: 10 mile(s):0
Sky conditions: clear
Temperature: 76.6 F (24.8 C)
Dew Point: 60.3 F (15.7 C)
Relative Humidity: 56%
Pressure (altimeter): 30.23 in. Hg (1023 hPa)
ob: KAIK 201735Z AUTO 05008KT 010V070 10SM CLR 25/16 A3023 RMK AO2 T02480157
cycle: 17

Station Type Date Time Source
KAIK TAF UTC NOAA

Error!

Example: see airport list